x

West Sea Otter (46204) Wave Buoy

7:00am - Sat 25th Apr 2015 All times are PDT. -7 hours from GMT.

  • Sig Wave height 4.9ft
  • Peak Period 10s
  • Wind
    9mph, 13mph gusts
  • Sea Temp 50°f
  • Air Temp 48°f
  • Sea Pressure 1013.2mb
  • West Sea Otter
  • West Sea Otter

More Historic Weather Station data

Upgrade to MSW Pro to gain access to the past 30 days of data for over 8000 Wavebouys and Weather Stations around the globe.

Join Pro

Comparision Forecast

View Surf forecast
   
Sat 04/25 7:00am 5ft 10s 9 13 mph 1013.2mb 50f 48f
6:00am 5ft 10s 9 11 mph 1012.7mb 50f 48f
5:00am 5ft 10s 9 11 mph 1012.6mb 49f 48f
4:00am 5.5ft 10s 9 11 mph 1012.5mb 49f 48f
3:00am 5ft 10s 11 13 mph 1012.2mb 49f 48f
2:00am 6ft 10s 11 16 mph 1011.9mb 50f 48f
1:00am 6ft 10s 13 18 mph 1011.8mb 50f 48f
12:00am 5ft 10s 13 16 mph 1011.7mb 50f 47f
Fri 04/24 11:00pm 5.5ft 11s 13 16 mph 1011.5mb 50f 46f
10:00pm 5.5ft 11s 11 13 mph 1011.5mb 50f 47f
8:00pm 6ft 10s 9 13 mph 1010.7mb 50f 47f
7:00pm 6ft 11s 9 11 mph 1010.4mb 50f 47f
6:00pm 7ft 12s 11 13 mph 1010mb 51f 47f
4:00pm 8ft 11s 9 11 mph 1009.3mb 51f 48f
3:00pm 7.5ft 12s 9 11 mph 1009.3mb 51f 47f
2:00pm 8ft 11s 9 11 mph 1009.1mb 51f 47f
1:00pm 9ft 12s 7 9 mph 1008.9mb 51f 48f
12:00pm 9ft 12s 7 11 mph 1008.6mb 51f 47f
11:00am 9ft 11s 7 9 mph 1008.1mb 51f 47f
10:00am 9ft 12s 4 9 mph 1007.8mb 50f 47f
9:00am 9ft 12s 4 9 mph 1007.4mb 50f 47f
8:00am 9ft 14s 7 9 mph 1007.3mb 50f 46f
7:00am 9.5ft 14s 4 7 mph 1007.1mb 49f 47f
6:00am 10ft 12s 4 7 mph 1006.7mb 49f 46f
5:00am 9ft 14s 2 4 mph 1006.4mb 49f 46f
4:00am 10ft 12s 4 9 mph 1006.1mb 49f 46f
3:00am 10ft 12s 4 9 mph 1005.9mb 49f 46f
2:00am 10ft 12s 2 4 mph 1006.1mb 49f 46f
1:00am 10.5ft 11s 2 4 mph 1006.4mb 50f 46f
12:00am 10ft 13s 4 9 mph 1006.3mb 50f 46f
Thu 04/23 11:00pm 11ft 16s 2 4 mph 1006.1mb 50f 46f
10:00pm 12ft 12s 4 7 mph 1006mb 50f 45f
9:00pm 12ft 14s 9 13 mph 1005.7mb 50f 45f
8:00pm 12ft 11s 2 4 mph 1005.3mb 50f 46f
7:00pm 12.5ft 15s 4 9 mph 1005mb 51f 46f
6:00pm 11ft 11s 4 9 mph 1004.9mb 51f 46f
5:00pm 11ft 11s  -  2 mph 1005mb 51f 47f
4:00pm 11.5ft 10s 4 9 mph 1005mb 50f 46f
3:00pm 10.5ft 10s 7 11 mph 1005.2mb 50f 46f
1:00pm 9.5ft 10s 7 11 mph 1005.5mb 50f 47f
12:00pm 9ft 10s 7 9 mph 1005.6mb 50f 47f
11:00am 8ft 9s 7 11 mph 1005.8mb 50f 47f
10:00am 8.5ft 10s 13 16 mph 1005.7mb 49f 46f
9:00am 8ft 8s 11 16 mph 1006mb 49f 47f
8:00am 8ft 10s 4 9 mph 1006.1mb 49f 47f
7:00am 8ft 9s 4 9 mph 1006.1mb 49f 46f
6:00am 9ft 9s 18 22 mph 1006mb 49f 45f
5:00am 9ft 8s 13
mph
1006.3mb 49f 47f
4:00am  -   -  18
mph
1006.4mb - 46f
3:00am 11.5ft 8s 9 16 mph 1006.3mb 50f 44f
1:00am 10ft 7s 34 40 mph 1007.3mb 50f 45f
Wed 04/22 11:00pm 8ft 7s 34 43 mph 1008.2mb 50f 46f
10:00pm 7.5ft 6s 31 43 mph 1009.7mb 50f 46f
9:00pm 6.5ft 11s 31 38 mph 1011.3mb 50f 47f
8:00pm 6ft 11s 27 31 mph 1012.8mb 50f 47f
7:00pm 5ft 11s 22 27 mph 1014.5mb 50f 47f
5:00pm 5.5ft 10s 18 22 mph 1017.2mb 50f 47f
4:00pm 6ft 11s 16 20 mph 1018.2mb 50f 47f
3:00pm 6ft 11s 11 13 mph 1019.3mb 50f 46f
2:00pm 6ft 11s 13 18 mph 1019.9mb 50f 46f
1:00pm 7ft 11s 9 13 mph 1020.9mb 50f 45f
12:00pm 7ft 11s 4 7 mph 1021.3mb 50f 46f
11:00am 7ft 12s 2
mph
1021.6mb 50f 46f
10:00am 6.5ft 12s 7 9 mph 1022.1mb 50f 45f
8:00am 7ft 12s 11 13 mph 1021.8mb 50f 45f
7:00am 6.5ft 13s 11 13 mph 1021.7mb 49f 45f
5:00am 8.5ft 8s 16 22 mph 1021.2mb 49f 46f
4:00am 8.5ft 12s 13 18 mph 1021.1mb 49f 47f
2:00am 8.5ft 8s 18 22 mph 1021.2mb 49f 47f
12:00am 9ft 8s 20 22 mph 1020.7mb 49f 48f
Tue 04/21 11:00pm 9ft 8s 20 22 mph 1020.9mb 49f 48f
10:00pm 9.5ft 12s 20 25 mph 1020.9mb 50f 48f
9:00pm  -   -  18
mph
1020.7mb - 48f
7:00pm 8.5ft 12s 18 20 mph 1020.3mb 50f 48f
6:00pm 9ft 14s 20 25 mph 1020.1mb 50f 49f